Terminal Aerodrome Forecast
Issued by NWS Hastings, NE

Home | Current Version | Previous Version | Text Only | Print | Product List | Glossary On
Versions: 1 2 3 4 5 6 7 8 9 10 11 12 13 14 15
000
FTUS43 KGID 191743
TAFGRI
TAF
KGRI 191743Z 1918/2018 15008KT 2SM -DZ BR OVC003
     FM192000 15009KT 4SM -DZ BR OVC008
     FM200400 16006KT 1/2SM -DZ FG OVC003
     FM201200 17005KT 1/2SM FG BKN003
     FM201600 16004KT 1 1/2SM BR OVC003=

USA.gov is the U.S. government's official web portal to all federal, state and local government web resources and services.